M I D A S
Marine Information and Data Acquisition System
Tripno 316 of the Zeeleeuw from 2002-03-12 07:00:59 to 2002-03-12 18:10:07
Back to CruiseResearch ActivitiesStationsMapUnderway DataData graphs

EquipmentUnitsComment
TimeDGPSUTC
LatitudeDGPSDM.mWGS84
LongitudeDGPSDM.mWGS84
HeadingGyrodeg 
SOGDGPSknotsSpeed over ground
COGDGPSdegCourse over ground
DepthEcho soundermeters200 kHz
Missing or incorrect values are displayed as -999
Navigation data collected by the RV Zeeleeuw from 2002-03-12 07:00:59 to 2002-03-12 18:10:07
                                                                                    Next 1000 lines
Time Latitude Longitude Heading SOG COG Depth
2002-03-12 07:01:05 51°13.687 2°55.904 109.2   272.1 6.3
2002-03-12 07:01:10 51°13.687 2°55.904 109 0.1 298.8 6.3
2002-03-12 07:01:15 51°13.687 2°55.902 108.7 0.3 293.1 6.3
2002-03-12 07:01:20 51°13.688 2°55.9 108 0.8 291.7 6.2
2002-03-12 07:01:25 51°13.688 2°55.897 107.7 1.1 289.7 6.3
2002-03-12 07:01:30 51°13.689 2°55.893 107.2 1.7 288.4 6.3
2002-03-12 07:01:36 51°13.69 2°55.887 106.5 2.1 287.1 -999
2002-03-12 07:01:41 51°13.691 2°55.88 105.5 2.6 286.2 -999
2002-03-12 07:01:46 51°13.692 2°55.873 104.5 3.1 284.8 -999
2002-03-12 07:01:51 51°13.694 2°55.866 103.5 3.4 283.8 -999
2002-03-12 07:01:56 51°13.695 2°55.858 102.7 3.5 282.9 -999
2002-03-12 07:02:01 51°13.696 2°55.851 101.7 3.4 281.9 -999
2002-03-12 07:02:06 51°13.696 2°55.844 100.7 3.2 280.9 -999
2002-03-12 07:02:11 51°13.697 2°55.837 99.7 3.2 279.8 -999
2002-03-12 07:02:16 51°13.698 2°55.83 98.7 3.2 279.2 -999
2002-03-12 07:02:20 51°13.698 2°55.824 97.5 3.3 277.9 8.4
2002-03-12 07:02:25 51°13.699 2°55.816 96.2 3.4 277 -999
2002-03-12 07:02:31 51°13.699 2°55.807 94.7 3.6 276.2 -999
2002-03-12 07:02:36 51°13.7 2°55.799 92.8 3.7 274.8 -999
2002-03-12 07:02:41 51°13.7 2°55.79 91.2 3.8 273.5 -999
2002-03-12 07:02:46 51°13.7 2°55.782 89.2 3.8 271.8 -999
2002-03-12 07:02:51 51°13.699 2°55.773 87.2 3.8 270.4 -999
2002-03-12 07:02:56 51°13.699 2°55.765 85.3 3.7 268.3 -999
2002-03-12 07:03:01 51°13.698 2°55.757 83.5 3.6 267 -999
2002-03-12 07:03:06 51°13.698 2°55.749 81.5 3.5 264.8 12.9
2002-03-12 07:03:10 51°13.697 2°55.744 79.8 3.4 263.5 12.2
2002-03-12 07:03:15 51°13.696 2°55.737 78.3 3.3 261.9 11.4
2002-03-12 07:03:20 51°13.696 2°55.73 76.5 3.2 260.2 11.5
2002-03-12 07:03:25 51°13.695 2°55.724 74.7 3 259 11.9
2002-03-12 07:03:29 51°13.695 2°55.719 72.8 2.9 258.4 12.6
2002-03-12 07:03:35 51°13.695 2°55.715 70.2 1.9 259.5 12.2
2002-03-12 07:03:40 51°13.695 2°55.713 64.7 1.4 262.4 12
2002-03-12 07:03:45 51°13.696 2°55.714 57.7 0.6 307.8 12.1
2002-03-12 07:03:50 51°13.698 2°55.715 49.2 1.1 20.2 12.4
2002-03-12 07:03:55 51°13.701 2°55.717 38.7 1.8 23.9 12
2002-03-12 07:04:00 51°13.706 2°55.719 29.3 2.8 18.5 11.1
2002-03-12 07:04:05 51°13.711 2°55.719 18.2 3.5 11.7 10.6
2002-03-12 07:04:10 51°13.718 2°55.719 7.8 4.6 1.5 10.2
2002-03-12 07:04:15 51°13.727 2°55.716 357.8 5.5 354.3 9.3
2002-03-12 07:04:20 51°13.736 2°55.712 350.8 6.6 346.1 9.3
2002-03-12 07:04:25 51°13.746 2°55.705 344.7 7.2 341.6 8.8
2002-03-12 07:04:29 51°13.754 2°55.7 341.8 7.8 337.3 8.5
2002-03-12 07:04:35 51°13.767 2°55.69 341.2 8.2 336.1 8.7
2002-03-12 07:04:40 51°13.778 2°55.682 341.2 8.6 335.6 8.8
2002-03-12 07:04:45 51°13.789 2°55.674 340.3 8.8 335.3 9.1
2002-03-12 07:04:50 51°13.801 2°55.665 340.2 9 334.7 9.1
2002-03-12 07:04:55 51°13.812 2°55.657 341 9.2 335.1 9.1
2002-03-12 07:05:00 51°13.824 2°55.648 342 9.4 335.8 9.1
2002-03-12 07:05:05 51°13.837 2°55.641 342.8 9.5 336.7 9
2002-03-12 07:05:10 51°13.849 2°55.632 343 9.7 337.5 8.9
2002-03-12 07:05:15 51°13.862 2°55.625 343.2 9.7 337.8 9
2002-03-12 07:05:19 51°13.872 2°55.618 343.5 9.9 337.8 8.8
2002-03-12 07:05:25 51°13.887 2°55.608 343.2 9.9 338 9
2002-03-12 07:05:30 51°13.9 2°55.599 342.7 10 337.5 8.9
2002-03-12 07:05:35 51°13.913 2°55.591 343.2 10.1 337.7 9.2
2002-03-12 07:05:40 51°13.926 2°55.583 343.5 10.2 337.7 9.2
2002-03-12 07:05:45 51°13.939 2°55.574 343.8 10.2 338.1 9.1
2002-03-12 07:05:50 51°13.952 2°55.566 343.7 10.2 338.1 9
2002-03-12 07:05:55 51°13.965 2°55.558 343.5 10.2 338.2 8.9
2002-03-12 07:06:00 51°13.978 2°55.55 343.2 10.1 337.9 8.8
2002-03-12 07:06:05 51°13.99 2°55.542 343 9.9 337.9 9.1
2002-03-12 07:06:10 51°14.002 2°55.534 342.7 9.3 337.5 9.2
2002-03-12 07:06:15 51°14.013 2°55.527 342.5 8.9 337.5 9.2
2002-03-12 07:06:19 51°14.021 2°55.521 342.5 8.5 337.4 9.5
2002-03-12 07:06:25 51°14.033 2°55.514 342.3 8 337.5 9.5
2002-03-12 07:06:30 51°14.043 2°55.508 341.7 7.6 336.9 9.5
2002-03-12 07:06:35 51°14.052 2°55.501 340.8 7.3 336.3 9.4
2002-03-12 07:06:40 51°14.06 2°55.494 339.3 7.1 335.4 9.4
2002-03-12 07:06:45 51°14.069 2°55.487 338.3 6.8 333.6 9.4
2002-03-12 07:06:50 51°14.076 2°55.481 337.5 6.5 332.4 9.4
2002-03-12 07:06:55 51°14.084 2°55.474 337.2 6.4 332.3 9.4
2002-03-12 07:06:59 51°14.09 2°55.469 337.2 6.2 332.4 9.4
2002-03-12 07:07:05 51°14.099 2°55.462 337 6.1 332.6 9.4
2002-03-12 07:07:10 51°14.106 2°55.456 336.3 5.9 332.2 9.4
2002-03-12 07:07:15 51°14.113 2°55.45 335.5 5.8 331.7 9.4
2002-03-12 07:07:20 51°14.12 2°55.444 334.8 5.8 330.8 9.4
2002-03-12 07:07:25 51°14.127 2°55.438 334.5 5.7 330.6 9.3
2002-03-12 07:07:30 51°14.134 2°55.431 334.2 5.7 330.1 9.4
2002-03-12 07:07:35 51°14.141 2°55.424 334 5.8 329.6 9.3
2002-03-12 07:07:40 51°14.148 2°55.417 333.5 6 328.9 9.4
2002-03-12 07:07:45 51°14.155 2°55.41 332.3 6.1 328.2 9.4
2002-03-12 07:07:50 51°14.163 2°55.402 331.3 6.4 327.4 9.3
2002-03-12 07:07:55 51°14.171 2°55.393 330.3 6.7 326.4 9.3
2002-03-12 07:08:00 51°14.179 2°55.384 329.8 7.1 325.9 9.3
2002-03-12 07:08:05 51°14.188 2°55.373 328.8 7.7 324.7 9
2002-03-12 07:08:10 51°14.197 2°55.362 327.8 8.1 323.5 9.3
2002-03-12 07:08:15 51°14.207 2°55.35 326.7 8.4 322.4 9.1
2002-03-12 07:08:20 51°14.216 2°55.338 325.5 8.7 321 9.3
2002-03-12 07:08:25 51°14.226 2°55.325 324.3 8.9 319.9 9.3
2002-03-12 07:08:30 51°14.235 2°55.311 323.2 9.1 318.3 9.4
2002-03-12 07:08:35 51°14.244 2°55.297 321.8 9.2 317.1 9.4
2002-03-12 07:08:40 51°14.253 2°55.282 320.7 9.4 315.7 9.3
2002-03-12 07:08:45 51°14.263 2°55.267 319.3 9.5 314.7 9.3
2002-03-12 07:08:50 51°14.271 2°55.252 317.8 9.2 313.1 9.1
2002-03-12 07:08:55 51°14.278 2°55.238 316.3 8.8 311.9 9.2
2002-03-12 07:09:00 51°14.286 2°55.224 315 8.3 310.4 9.3
2002-03-12 07:09:05 51°14.292 2°55.211 313.7 7.9 309.1 9.3
2002-03-12 07:09:09 51°14.297 2°55.201 311.8 7.4 307.1 9.3
2002-03-12 07:09:15 51°14.303 2°55.186 310 7.2 305.8 9.5
2002-03-12 07:09:20 51°14.309 2°55.173 308.7 6.8 304.5 9.3
2002-03-12 07:09:25 51°14.313 2°55.161 307.8 6.6 303.9 9.3
2002-03-12 07:09:29 51°14.317 2°55.152 307 6.3 303 9.3
2002-03-12 07:09:35 51°14.322 2°55.139 306.3 6.1 302.4 9.3
2002-03-12 07:09:40 51°14.327 2°55.128 305.8 6 301.8 9.3
2002-03-12 07:09:45 51°14.331 2°55.116 305.5 5.9 301.1 9.3
2002-03-12 07:09:50 51°14.335 2°55.104 305.3 6.1 300.9 9.3
2002-03-12 07:09:55 51°14.34 2°55.092 304.8 6.2 300.5 9.4
2002-03-12 07:10:00 51°14.345 2°55.078 304.5 6.8 300.1 9.3
2002-03-12 07:10:05 51°14.35 2°55.063 304.2 7.3 299.7 9.4
2002-03-12 07:10:10 51°14.356 2°55.047 304 8 299.5 9.2
2002-03-12 07:10:15 51°14.362 2°55.03 304.8 8.6 299.5 9.1
2002-03-12 07:10:19 51°14.368 2°55.016 307 9 300.3 8.9
2002-03-12 07:10:25 51°14.377 2°54.994 309.7 9.6 302.4 9
2002-03-12 07:10:30 51°14.385 2°54.975 312.7 10 304.2 9
2002-03-12 07:10:35 51°14.394 2°54.956 314.3 10.4 306.5 9.1
2002-03-12 07:10:40 51°14.404 2°54.937 315.7 10.7 307.6 9.2
2002-03-12 07:10:45 51°14.414 2°54.918 317.3 11.1 309.1 9.2
2002-03-12 07:10:50 51°14.425 2°54.9 320.5 11.3 311.9 9.2
2002-03-12 07:10:55 51°14.436 2°54.883 324 11.4 314.1 9.3
2002-03-12 07:10:59 51°14.446 2°54.869 326.7 11.5 316.6 9.2
2002-03-12 07:11:05 51°14.461 2°54.849 327.8 11.6 318.8 9.2
2002-03-12 07:11:10 51°14.473 2°54.833 329.5 11.7 320.4 9.2
2002-03-12 07:11:15 51°14.486 2°54.816 329.7 11.7 321 9.1
2002-03-12 07:11:20 51°14.499 2°54.8 329.3 11.8 320.7 9.1
2002-03-12 07:11:25 51°14.511 2°54.783 328.7 11.8 320.4 9
2002-03-12 07:11:30 51°14.524 2°54.766 328.2 11.9 319.6 9
2002-03-12 07:11:35 51°14.536 2°54.749 327.7 11.9 319.1 9
2002-03-12 07:11:40 51°14.549 2°54.731 327.3 12 318.6 8.9
2002-03-12 07:11:45 51°14.561 2°54.713 327.7 12 318.7 8.9
2002-03-12 07:11:50 51°14.574 2°54.696 328.5 12 319.2 8.8
2002-03-12 07:11:55 51°14.586 2°54.679 328.8 12 319.5 8.8
2002-03-12 07:12:00 51°14.599 2°54.662 329.2 12 319.6 8.8
2002-03-12 07:12:05 51°14.612 2°54.644 329.2 12 319.9 8.9
2002-03-12 07:12:10 51°14.625 2°54.627 329.2 12.1 319.8 8.7
2002-03-12 07:12:15 51°14.637 2°54.61 329 12.1 319.8 8.7
2002-03-12 07:12:19 51°14.647 2°54.596 329 12.1 319.6 8.8
2002-03-12 07:12:25 51°14.663 2°54.576 329 12 319.7 8.9
2002-03-12 07:12:30 51°14.676 2°54.558 329 12.1 319.8 8.9
2002-03-12 07:12:35 51°14.688 2°54.541 329.2 12.1 320 9
2002-03-12 07:12:40 51°14.701 2°54.524 329 12.1 320 9
2002-03-12 07:12:45 51°14.714 2°54.507 329.3 12.1 320.1 8.9
2002-03-12 07:12:50 51°14.727 2°54.49 329.5 12.1 320.3 9
2002-03-12 07:12:55 51°14.74 2°54.473 329 12.1 320.5 9
2002-03-12 07:12:59 51°14.75 2°54.459 328.7 12.1 320.1 8.9
2002-03-12 07:13:05 51°14.765 2°54.439 328.8 12.1 320.1 9
2002-03-12 07:13:10 51°14.778 2°54.421 328.7 12.1 320 9
2002-03-12 07:13:15 51°14.79 2°54.404 329 12 320.1 8.9
2002-03-12 07:13:19 51°14.801 2°54.391 328.8 12 320.3 8.9
2002-03-12 07:13:25 51°14.816 2°54.37 328.7 12 320.2 9
2002-03-12 07:13:30 51°14.829 2°54.353 328.8 12 320.1 8.6
2002-03-12 07:13:35 51°14.842 2°54.336 328.8 12 320.1 8.8
2002-03-12 07:13:40 51°14.854 2°54.319 328.8 12 320.1 8.6
2002-03-12 07:13:45 51°14.867 2°54.303 329 12 320.4 8.5
2002-03-12 07:13:50 51°14.88 2°54.286 329.3 11.9 320.4 8.4
2002-03-12 07:13:55 51°14.893 2°54.27 330.3 11.9 321.3 8.3
2002-03-12 07:14:00 51°14.906 2°54.253 330 11.9 321.1 8.1
2002-03-12 07:14:05 51°14.919 2°54.237 330.8 11.9 322 7.8
2002-03-12 07:14:10 51°14.932 2°54.22 330.5 12 321.4 7.9
2002-03-12 07:14:15 51°14.945 2°54.205 331.3 11.9 322.4 7.8
2002-03-12 07:14:20 51°14.958 2°54.188 330.8 12 321.7 7.9
2002-03-12 07:14:25 51°14.971 2°54.173 331.8 12 322.8 8
2002-03-12 07:14:30 51°14.984 2°54.156 331 12 321.9 7.9
2002-03-12 07:14:35 51°14.998 2°54.14 332.2 12.1 323.2 7.9
2002-03-12 07:14:40 51°15.011 2°54.122 330.8 12.2 322.1 8
2002-03-12 07:14:45 51°15.025 2°54.107 332.3 12.3 323.3 8
2002-03-12 07:14:50 51°15.038 2°54.089 330.3 12.5 321.3 8.1
2002-03-12 07:14:55 51°15.053 2°54.073 332.7 12.5 323.3 8.2
2002-03-12 07:15:00 51°15.066 2°54.055 330.3 12.6 321.9 8
2002-03-12 07:15:05 51°15.081 2°54.039 333.3 12.6 323.5 8.2
2002-03-12 07:15:10 51°15.094 2°54.021 330.5 12.8 321.7 8.1
2002-03-12 07:15:15 51°15.109 2°54.005 333.3 12.8 322.4 8.2
2002-03-12 07:15:20 51°15.123 2°53.986 330.3 12.9 321.6 8.6
2002-03-12 07:15:25 51°15.138 2°53.97 333.2 12.9 323.3 8.5
2002-03-12 07:15:30 51°15.151 2°53.951 330.3 13 321.5 8.4
2002-03-12 07:15:35 51°15.166 2°53.935 333 13 323 8.5
2002-03-12 07:15:40 51°15.18 2°53.915 329.8 13.1 322 8.5
2002-03-12 07:15:45 51°15.195 2°53.899 332.2 13.1 322.3 8.5
2002-03-12 07:15:50 51°15.209 2°53.879 329.8 13.2 320.7 8.6
2002-03-12 07:15:55 51°15.224 2°53.863 332.2 13.2 322.1 8.6
2002-03-12 07:16:00 51°15.237 2°53.843 329.7 13.3 320.7 8.6
2002-03-12 07:16:05 51°15.253 2°53.827 332.8 13.3 322.4 8.7
2002-03-12 07:16:10 51°15.267 2°53.807 331 13.3 322.3 8.7
2002-03-12 07:16:15 51°15.282 2°53.792 334.7 13.3 323.9 8.8
2002-03-12 07:16:20 51°15.297 2°53.773 332.3 13.4 323.3 8.9
2002-03-12 07:16:25 51°15.312 2°53.757 335.3 13.4 323.8 8.9
2002-03-12 07:16:30 51°15.327 2°53.739 334 13.4 324.7 9
2002-03-12 07:16:35 51°15.343 2°53.724 336.7 13.4 326.4 9.1
2002-03-12 07:16:40 51°15.358 2°53.706 334.7 13.4 326.1 9.1
2002-03-12 07:16:45 51°15.374 2°53.692 337.5 13.4 327 9.2
2002-03-12 07:16:50 51°15.389 2°53.673 335.2 13.5 325.8 9.3
2002-03-12 07:16:55 51°15.406 2°53.66 338.2 13.4 327.6 9.3
2002-03-12 07:17:00 51°15.421 2°53.642 335.7 13.4 327.2 9.4
2002-03-12 07:17:05 51°15.437 2°53.627 338.3 13.4 327.9 9.5
2002-03-12 07:17:10 51°15.452 2°53.61 336.2 13.5 326.7 9.5
2002-03-12 07:17:15 51°15.468 2°53.596 338.7 13.4 327.9 9.7
2002-03-12 07:17:19 51°15.481 2°53.582 336.7 13.5 327.9 9.7
2002-03-12 07:17:25 51°15.5 2°53.564 338.7 13.5 327.9 9.4
2002-03-12 07:17:30 51°15.516 2°53.546 336.5 13.5 326.9 9.8
2002-03-12 07:17:35 51°15.532 2°53.532 338.7 13.5 327.9 9.9
2002-03-12 07:17:40 51°15.547 2°53.514 336.2 13.5 326.7 10
2002-03-12 07:17:45 51°15.563 2°53.499 338 13.5 327.4 10.1
2002-03-12 07:17:50 51°15.579 2°53.482 336 13.5 326.5 10.2
2002-03-12 07:17:55 51°15.595 2°53.467 337.7 13.5 326.9 10.1
2002-03-12 07:18:00 51°15.61 2°53.449 335.7 13.5 327.4 10.3
2002-03-12 07:18:05 51°15.626 2°53.434 337.2 13.5 326.4 10.4
2002-03-12 07:18:10 51°15.641 2°53.415 335.8 13.6 325.7 10.4
2002-03-12 07:18:15 51°15.657 2°53.401 337.5 13.5 326.3 10.5
2002-03-12 07:18:20 51°15.672 2°53.383 335.8 13.5 326 10.5
2002-03-12 07:18:25 51°15.688 2°53.367 336.8 13.5 326 10.6
2002-03-12 07:18:30 51°15.703 2°53.349 335.5 13.5 326.8 10.6
2002-03-12 07:18:35 51°15.719 2°53.334 336.8 13.5 325.5 10.7
2002-03-12 07:18:40 51°15.734 2°53.316 335.7 13.5 325.6 10.7
2002-03-12 07:18:45 51°15.75 2°53.3 336.5 13.5 324.8 10.7
2002-03-12 07:18:50 51°15.765 2°53.283 336.7 13.5 326 10.8
2002-03-12 07:18:55 51°15.781 2°53.267 336.5 13.5 325.3 10.8
2002-03-12 07:19:00 51°15.796 2°53.25 336.8 13.5 326.3 10.8
2002-03-12 07:19:05 51°15.812 2°53.234 336.7 13.5 325.6 10.9
2002-03-12 07:19:10 51°15.828 2°53.217 337.8 13.5 327.7 10.9
2002-03-12 07:19:15 51°15.843 2°53.201 336.7 13.5 326.1 11
2002-03-12 07:19:20 51°15.859 2°53.185 337.8 13.4 327.6 11
2002-03-12 07:19:25 51°15.874 2°53.168 336.3 13.5 326 11
2002-03-12 07:19:30 51°15.89 2°53.153 338 13.4 327.6 11.1
2002-03-12 07:19:35 51°15.906 2°53.135 336.2 13.5 326.6 11.1
2002-03-12 07:19:40 51°15.922 2°53.12 338.7 13.5 327.6 11.1
2002-03-12 07:19:45 51°15.937 2°53.103 335.8 13.5 325.7 11.2
2002-03-12 07:19:50 51°15.953 2°53.088 338.8 13.4 327.8 11.2
2002-03-12 07:19:55 51°15.968 2°53.07 335.7 13.5 326 11.3
2002-03-12 07:20:00 51°15.984 2°53.056 338.5 13.4 327.9 11.3
2002-03-12 07:20:05 51°15.999 2°53.038 336 13.5 326.3 11.5
2002-03-12 07:20:10 51°16.016 2°53.024 339.5 13.4 328.6 11.5
2002-03-12 07:20:15 51°16.031 2°53.007 337.5 13.5 327.6 11.5
2002-03-12 07:20:20 51°16.048 2°52.994 340.8 13.4 330.2 11.5
2002-03-12 07:20:25 51°16.063 2°52.978 339.3 13.4 329.9 11.5
2002-03-12 07:20:30 51°16.08 2°52.966 343.2 13.4 330.9 11.5
2002-03-12 07:20:35 51°16.096 2°52.951 342.3 13.3 332.6 11.6
2002-03-12 07:20:40 51°16.113 2°52.941 345.8 13.3 335.2 11.7
2002-03-12 07:20:45 51°16.13 2°52.927 344.3 13.3 335.2 11.6
2002-03-12 07:20:50 51°16.147 2°52.917 347.2 13.2 337.3 11.7
2002-03-12 07:20:55 51°16.164 2°52.905 346.2 13.2 337.5 11.7
2002-03-12 07:21:00 51°16.181 2°52.896 347.8 13.2 338.3 11.8
2002-03-12 07:21:05 51°16.198 2°52.884 347.2 13.2 338.6 11.7
2002-03-12 07:21:10 51°16.215 2°52.874 347.8 13.2 338.6 11.8
2002-03-12 07:21:15 51°16.232 2°52.863 347.3 13.2 339.2 11.7
2002-03-12 07:21:20 51°16.249 2°52.853 348 13.2 338.9 11.8
2002-03-12 07:21:25 51°16.266 2°52.842 348 13.2 339.9 11.7
2002-03-12 07:21:30 51°16.283 2°52.831 346.5 13.2 338.1 11.8
2002-03-12 07:21:35 51°16.3 2°52.82 347.8 13.2 339.4 11.7
2002-03-12 07:21:40 51°16.317 2°52.809 346.5 13.2 337.7 11.7
2002-03-12 07:21:45 51°16.335 2°52.799 348.3 13.2 339.5 11.7
2002-03-12 07:21:50 51°16.351 2°52.788 346.3 13.2 337.8 11.6
2002-03-12 07:21:55 51°16.369 2°52.778 348.7 13.2 338.9 11.6
2002-03-12 07:22:00 51°16.385 2°52.766 345.7 13.2 338 11.6
2002-03-12 07:22:05 51°16.403 2°52.758 348.8 13.2 339.6 11.5
2002-03-12 07:22:10 51°16.419 2°52.745 346 13.2 337.8 11.4
2002-03-12 07:22:15 51°16.437 2°52.737 349.2 13.2 340 11.4
2002-03-12 07:22:20 51°16.454 2°52.725 346.7 13.2 339 11.3
2002-03-12 07:22:25 51°16.471 2°52.717 350.3 13.1 340.6 11.2
2002-03-12 07:22:30 51°16.488 2°52.705 347.2 13.2 339.4 11.2
2002-03-12 07:22:35 51°16.505 2°52.698 350 13.1 340.8 11.1
2002-03-12 07:22:40 51°16.522 2°52.686 348.3 13.1 340.1 11
2002-03-12 07:22:45 51°16.539 2°52.679 350.8 13.1 341.4 10.9
2002-03-12 07:22:50 51°16.556 2°52.668 349.3 13.1 341 10.8
2002-03-12 07:22:55 51°16.574 2°52.662 352.3 13 342.4 10.7
2002-03-12 07:23:00 51°16.591 2°52.651 350 13 342 10.8
2002-03-12 07:23:05 51°16.608 2°52.644 352.3 13 341.8 10.5
2002-03-12 07:23:10 51°16.625 2°52.634 350.7 13 342.5 10.5
2002-03-12 07:23:15 51°16.643 2°52.627 351.7 13 342.6 10.4
2002-03-12 07:23:20 51°16.66 2°52.617 350.8 13 342.5 10
2002-03-12 07:23:25 51°16.677 2°52.61 351.3 12.9 341.7 10.1
2002-03-12 07:23:30 51°16.694 2°52.6 350.7 12.9 342.4 9.8
2002-03-12 07:23:35 51°16.711 2°52.592 351 12.9 341.6 9.6
2002-03-12 07:23:40 51°16.728 2°52.583 351 12.8 342.3 9.3
2002-03-12 07:23:45 51°16.744 2°52.575 349.8 12.8 341.2 9
2002-03-12 07:23:50 51°16.761 2°52.566 350.7 12.7 342.1 9.1
2002-03-12 07:23:55 51°16.777 2°52.557 349.5 12.6 340.6 9.4
2002-03-12 07:24:00 51°16.794 2°52.549 351 12.6 342.4 9.4
2002-03-12 07:24:05 51°16.811 2°52.54 351.2 12.7 341.7 9.2
2002-03-12 07:24:10 51°16.828 2°52.533 352.5 12.8 343.8 9.1
2002-03-12 07:24:15 51°16.845 2°52.525 352 12.8 343 9.1
2002-03-12 07:24:20 51°16.862 2°52.518 354 12.7 344.9 9.3
2002-03-12 07:24:25 51°16.879 2°52.51 352.5 12.7 344 9.4
2002-03-12 07:24:30 51°16.896 2°52.503 354.5 12.7 345.6 9.4
2002-03-12 07:24:35 51°16.913 2°52.495 352.8 12.7 344.1 9.3
2002-03-12 07:24:40 51°16.931 2°52.489 355 12.8 346 9
2002-03-12 07:24:45 51°16.947 2°52.481 352.8 12.8 344.3 8.8
2002-03-12 07:24:49 51°16.961 2°52.476 354.8 12.7 346 8.8
2002-03-12 07:24:55 51°16.981 2°52.466 352.8 12.7 344.5 8.8
2002-03-12 07:25:00 51°16.998 2°52.461 355.5 12.6 346.5 8.8
2002-03-12 07:25:05 51°17.015 2°52.453 353.2 12.6 344.6 8.8
2002-03-12 07:25:10 51°17.032 2°52.447 355.8 12.6 346.5 8.7
2002-03-12 07:25:15 51°17.049 2°52.439 352.8 12.7 344.7 9
2002-03-12 07:25:20 51°17.066 2°52.433 355.3 12.7 346.2 9
2002-03-12 07:25:25 51°17.083 2°52.424 351.8 12.7 344 9
2002-03-12 07:25:30 51°17.1 2°52.418 354.8 12.7 345.7 9.1
2002-03-12 07:25:35 51°17.117 2°52.41 352.7 12.8 344.2 9.2
2002-03-12 07:25:40 51°17.135 2°52.404 355.7 12.8 346.4 9.1
2002-03-12 07:25:45 51°17.152 2°52.396 353.8 12.8 345.2 9.2
2002-03-12 07:25:50 51°17.169 2°52.391 357.2 12.7 347.7 9.3
2002-03-12 07:25:55 51°17.186 2°52.384 355 12.8 346.3 9.4
2002-03-12 07:26:00 51°17.204 2°52.38 357.8 12.7 348.7 9.4
2002-03-12 07:26:05 51°17.221 2°52.372 355.3 12.8 347 9.4
2002-03-12 07:26:10 51°17.238 2°52.368 358.5 12.8 349.1 9.4
2002-03-12 07:26:15 51°17.255 2°52.36 355.3 12.8 347.2 9.5
2002-03-12 07:26:20 51°17.273 2°52.356 358 12.8 348.9 9.6
2002-03-12 07:26:25 51°17.29 2°52.348 355 12.8 347 9.6
2002-03-12 07:26:30 51°17.308 2°52.344 358 12.8 348.9 9.5
2002-03-12 07:26:35 51°17.325 2°52.336 355.3 12.8 347.1 9.7
2002-03-12 07:26:40 51°17.342 2°52.332 358.2 12.8 348.8 9.7
2002-03-12 07:26:45 51°17.359 2°52.324 355 12.8 346.9 9.6
2002-03-12 07:26:50 51°17.377 2°52.32 357.8 12.8 348.4 9.7
2002-03-12 07:26:55 51°17.394 2°52.311 354.7 12.8 346.5 9.7
2002-03-12 07:27:00 51°17.411 2°52.307 357.2 12.7 347.7 9.7
2002-03-12 07:27:05 51°17.428 2°52.299 354.2 12.7 346.1 9.8
2002-03-12 07:27:10 51°17.445 2°52.294 356.8 12.7 347.5 9.7
2002-03-12 07:27:15 51°17.462 2°52.286 354.5 12.7 346.3 9.8
2002-03-12 07:27:20 51°17.48 2°52.281 357.2 12.7 347.8 9.7
2002-03-12 07:27:25 51°17.497 2°52.273 354.3 12.7 346.4 9.7
2002-03-12 07:27:30 51°17.514 2°52.268 357.2 12.7 347.7 9.6
2002-03-12 07:27:35 51°17.531 2°52.26 354.2 12.7 346.5 9.7
2002-03-12 07:27:40 51°17.549 2°52.255 356.8 12.7 347.5 9.8
2002-03-12 07:27:45 51°17.566 2°52.248 356.2 12.7 347.6 9.8
2002-03-12 07:27:50 51°17.583 2°52.244 358.7 12.7 349.2 9.7
2002-03-12 07:27:55 51°17.6 2°52.238 358 12.7 349.5 9.7
2002-03-12 07:28:00 51°17.617 2°52.235 0.2 12.6 350.8 9.8
2002-03-12 07:28:05 51°17.635 2°52.229 359.3 12.6 351.3 9.7
2002-03-12 07:28:10 51°17.652 2°52.227 0.8 12.6 351.8 9.8
2002-03-12 07:28:15 51°17.669 2°52.221 0.5 12.6 352.2 9.7
2002-03-12 07:28:20 51°17.687 2°52.219 1.2 12.6 352.2 9.7
2002-03-12 07:28:25 51°17.704 2°52.214 0.8 12.6 352.8 9.7
2002-03-12 07:28:30 51°17.721 2°52.211 0.5 12.6 352.1 9.7
2002-03-12 07:28:35 51°17.739 2°52.208 2.3 12.6 353.5 9.7
2002-03-12 07:28:40 51°17.756 2°52.206 3.7 12.5 354.4 9.7
2002-03-12 07:28:45 51°17.773 2°52.203 4.2 12.5 356.1 9.7
2002-03-12 07:28:50 51°17.79 2°52.202 5.2 12.5 355.1 9.7
2002-03-12 07:28:55 51°17.808 2°52.201 5.8 12.5 357.7 9.8
2002-03-12 07:29:00 51°17.825 2°52.2 5.7 12.5 357.4 9.8
2002-03-12 07:29:05 51°17.842 2°52.2 7.8 12.5 359.3 9.7
2002-03-12 07:29:10 51°17.86 2°52.2 8.7 12.5 358.9 9.7
2002-03-12 07:29:15 51°17.877 2°52.202 10.5 12.5 2.1 9.8
2002-03-12 07:29:20 51°17.894 2°52.203 11.2 12.5 1.8 9.8
2002-03-12 07:29:25 51°17.911 2°52.206 13.5 12.4 5.1 9.8
2002-03-12 07:29:30 51°17.928 2°52.21 14.5 12.5 6.1 9.8
2002-03-12 07:29:35 51°17.945 2°52.214 16.5 12.4 8.7 9.9
2002-03-12 07:29:39 51°17.959 2°52.217 16.5 12.4 8.9 9.9
2002-03-12 07:29:45 51°17.979 2°52.225 19.2 12.4 11.3 9.9
2002-03-12 07:29:50 51°17.996 2°52.23 19.3 12.4 11.6 9.9
2002-03-12 07:29:55 51°18.012 2°52.238 21.8 12.4 13.3 9.9
2002-03-12 07:30:00 51°18.029 2°52.244 21.7 12.4 14.2 10
2002-03-12 07:30:05 51°18.045 2°52.253 24 12.4 16.9 10
2002-03-12 07:30:10 51°18.062 2°52.259 21.8 12.4 15 10
2002-03-12 07:30:15 51°18.078 2°52.268 24.3 12.4 17.2 10
2002-03-12 07:30:20 51°18.095 2°52.274 21.5 12.4 15 10.1
2002-03-12 07:30:25 51°18.112 2°52.283 24.3 12.4 16.2 10.1
2002-03-12 07:30:30 51°18.129 2°52.288 20.3 12.3 14.5 10.1
2002-03-12 07:30:35 51°18.146 2°52.292 17.5 12.4 11.7 10.1
2002-03-12 07:30:40 51°18.162 2°52.297 16.5 12.4 9.4 10.1
2002-03-12 07:30:45 51°18.179 2°52.302 17.7 12.4 9.9 10.2
2002-03-12 07:30:50 51°18.196 2°52.309 20.7 12.4 13 10.2
2002-03-12 07:30:55 51°18.212 2°52.319 26 12.4 14.7 10.2
2002-03-12 07:31:00 51°18.227 2°52.332 32.2 12.2 24.8 10.2
2002-03-12 07:31:05 51°18.24 2°52.348 39.3 12.1 30.9 10.2
2002-03-12 07:31:10 51°18.252 2°52.366 45.3 12 39.5 10.3
2002-03-12 07:31:15 51°18.263 2°52.387 52.2 12 45.6 10.3
2002-03-12 07:31:19 51°18.27 2°52.405 58 12 53.6 10.4
2002-03-12 07:31:25 51°18.279 2°52.433 64.5 12 58.9 10.4
2002-03-12 07:31:30 51°18.286 2°52.458 67.2 12.1 64.1 10.4
2002-03-12 07:31:35 51°18.293 2°52.482 67.2 12.1 64.4 10.5
2002-03-12 07:31:40 51°18.301 2°52.506 66.2 12.1 64.2 10.5
2002-03-12 07:31:45 51°18.309 2°52.529 63.5 12.1 62 10.5
2002-03-12 07:31:50 51°18.318 2°52.552 61.3 12.2 59.1 10.5
2002-03-12 07:31:55 51°18.328 2°52.574 59.3 12.2 56.9 10.5
2002-03-12 07:32:00 51°18.338 2°52.596 58.5 12.2 55.6 10.5
2002-03-12 07:32:05 51°18.348 2°52.618 56.7 12.2 53.6 10.5
2002-03-12 07:32:10 51°18.357 2°52.64 57.7 12.2 54.4 10.5
2002-03-12 07:32:15 51°18.368 2°52.661 56.8 12.3 53.1 10.5
2002-03-12 07:32:20 51°18.378 2°52.684 57.3 12.3 54.2 10.5
2002-03-12 07:32:25 51°18.388 2°52.706 57 12.3 53.1 10.5
2002-03-12 07:32:30 51°18.398 2°52.728 57.7 12.4 54.5 10.5
2002-03-12 07:32:35 51°18.409 2°52.75 57 12.3 52.9 10.5
2002-03-12 07:32:39 51°18.416 2°52.768 57.5 12.3 54.5 10.5
2002-03-12 07:32:45 51°18.429 2°52.794 56.2 12.3 52.5 10.5
2002-03-12 07:32:50 51°18.439 2°52.816 57.7 12.3 54.3 10.5
2002-03-12 07:32:55 51°18.449 2°52.838 57 12.3 52.9 10.6
2002-03-12 07:32:59 51°18.456 2°52.856 58.2 12.3 54.8 10.6
2002-03-12 07:33:05 51°18.469 2°52.882 57.8 12.3 53.5 10.6
2002-03-12 07:33:10 51°18.478 2°52.905 58.5 12.3 55 10.6
2002-03-12 07:33:15 51°18.488 2°52.927 58.8 12.3 54.5 10.7
2002-03-12 07:33:20 51°18.498 2°52.949 59 12.3 55.8 10.7
2002-03-12 07:33:25 51°18.507 2°52.972 60.2 12.2 55.4 10.7
2002-03-12 07:33:30 51°18.517 2°52.995 59.7 12.3 56.5 10.7
2002-03-12 07:33:35 51°18.526 2°53.018 60.2 12.4 56.1 10.7
2002-03-12 07:33:40 51°18.535 2°53.041 60.3 12.3 57 10.7
2002-03-12 07:33:45 51°18.544 2°53.064 61.2 12.3 57.1 10.7
2002-03-12 07:33:50 51°18.553 2°53.088 62.7 12.4 59.1 10.7
2002-03-12 07:33:55 51°18.56 2°53.112 65.3 12.4 60.8 10.8
2002-03-12 07:34:00 51°18.568 2°53.136 65.8 12.4 62.9 10.8
2002-03-12 07:34:05 51°18.575 2°53.162 68 12.3 64.2 10.8
2002-03-12 07:34:10 51°18.583 2°53.186 67.5 12.4 64.7 10.8
2002-03-12 07:34:15 51°18.588 2°53.212 69.3 12.4 66.3 10.8
2002-03-12 07:34:20 51°18.596 2°53.236 68.5 12.4 66.7 10.8
2002-03-12 07:34:25 51°18.602 2°53.262 69.8 12.4 67.3 10.8
2002-03-12 07:34:30 51°18.61 2°53.287 68.5 12.4 66 10.8
2002-03-12 07:34:35 51°18.615 2°53.313 69.8 12.4 67.4 10.8
2002-03-12 07:34:40 51°18.624 2°53.337 68.3 12.4 66.8 10.8
2002-03-12 07:34:45 51°18.629 2°53.363 69.5 12.4 67.1 10.8
2002-03-12 07:34:50 51°18.637 2°53.387 67.7 12.3 65 10.8
2002-03-12 07:34:55 51°18.643 2°53.413 69.2 12.3 65.4 10.8
2002-03-12 07:35:00 51°18.651 2°53.437 67.3 12.3 64.8 10.8
2002-03-12 07:35:05 51°18.657 2°53.462 68.2 12.3 65.6 10.8
2002-03-12 07:35:10 51°18.666 2°53.486 66.8 12.3 64.1 10.8
2002-03-12 07:35:15 51°18.672 2°53.511 67.3 12.3 65.1 10.8
2002-03-12 07:35:19 51°18.679 2°53.53 66 12.3 63.3 10.8
2002-03-12 07:35:25 51°18.687 2°53.56 67.3 12.3 64.7 10.8
2002-03-12 07:35:30 51°18.696 2°53.584 65.7 12.3 63.5 10.8
2002-03-12 07:35:35 51°18.702 2°53.61 66.8 12.4 64.3 10.9
2002-03-12 07:35:40 51°18.711 2°53.633 66.2 12.4 63.2 10.9
2002-03-12 07:35:45 51°18.717 2°53.658 66.8 12.4 64.6 10.9
2002-03-12 07:35:50 51°18.726 2°53.682 65.5 12.4 62.5 10.8
2002-03-12 07:35:55 51°18.733 2°53.707 66.7 12.4 64.5 10.9
2002-03-12 07:36:00 51°18.741 2°53.731 65.5 12.3 62.6 10.8
2002-03-12 07:36:05 51°18.748 2°53.756 66.8 12.3 64.6 10.9
2002-03-12 07:36:10 51°18.756 2°53.78 65.8 12.4 62.7 10.8
2002-03-12 07:36:15 51°18.763 2°53.805 67 12.4 64.7 10.8
2002-03-12 07:36:20 51°18.771 2°53.829 66.2 12.4 64.1 10.9
2002-03-12 07:36:25 51°18.778 2°53.854 67.2 12.3 64.8 10.9
2002-03-12 07:36:30 51°18.786 2°53.878 66.5 12.3 63.3 10.9
2002-03-12 07:36:35 51°18.793 2°53.903 67.2 12.4 64.9 10.9
2002-03-12 07:36:40 51°18.801 2°53.928 67 12.4 63.3 10.9
2002-03-12 07:36:45 51°18.808 2°53.952 67.5 12.3 65.2 10.9
2002-03-12 07:36:50 51°18.816 2°53.977 67 12.3 63.7 10.9
2002-03-12 07:36:55 51°18.823 2°54.002 67.5 12.3 65.2 10.9
2002-03-12 07:37:00 51°18.831 2°54.026 66.8 12.3 63.7 10.9
2002-03-12 07:37:05 51°18.838 2°54.051 67.5 12.3 65.2 10.9
2002-03-12 07:37:10 51°18.846 2°54.075 67 12.3 63.8 10.8
2002-03-12 07:37:15 51°18.852 2°54.1 67.3 12.3 65.2 10.9
2002-03-12 07:37:20 51°18.86 2°54.124 67.3 12.3 64.1 10.9
2002-03-12 07:37:25 51°18.867 2°54.149 67.5 12.3 65.5 10.9
2002-03-12 07:37:30 51°18.875 2°54.173 66.8 12.3 63.6 10.9
2002-03-12 07:37:35 51°18.882 2°54.198 67.5 12.3 65.1 10.9
2002-03-12 07:37:40 51°18.89 2°54.222 66.5 12.3 63.3 10.9
2002-03-12 07:37:45 51°18.897 2°54.246 66.8 12.3 64.6 10.9
2002-03-12 07:37:50 51°18.905 2°54.271 67 12.3 63.4 10.9
2002-03-12 07:37:55 51°18.913 2°54.295 66.5 12.4 64.3 10.9
2002-03-12 07:38:00 51°18.92 2°54.32 66.7 12.4 63.2 10.9
2002-03-12 07:38:05 51°18.928 2°54.344 66.7 12.4 64.2 10.9
2002-03-12 07:38:10 51°18.935 2°54.369 66.5 12.3 63.4 10.9
2002-03-12 07:38:15 51°18.943 2°54.393 66.3 12.3 63.9 10.9
2002-03-12 07:38:20 51°18.951 2°54.417 66.5 12.3 63.1 11
2002-03-12 07:38:25 51°18.959 2°54.441 66 12.3 63.6 10.9
2002-03-12 07:38:30 51°18.966 2°54.466 67.2 12.3 63.7 10.9
2002-03-12 07:38:35 51°18.974 2°54.49 66.8 12.3 64.3 11
2002-03-12 07:38:39 51°18.98 2°54.51 67.5 12.3 63.3 11
2002-03-12 07:38:45 51°18.989 2°54.54 66.7 12.4 64.3 11
2002-03-12 07:38:50 51°18.996 2°54.565 67.3 12.3 63.6 11
2002-03-12 07:38:55 51°19.004 2°54.589 66.5 12.3 64.2 11
2002-03-12 07:39:00 51°19.011 2°54.614 67.3 12.3 63.1 10.9
2002-03-12 07:39:05 51°19.019 2°54.638 66.7 12.3 64.3 11
2002-03-12 07:39:10 51°19.026 2°54.662 67.3 12.3 63.1 11
2002-03-12 07:39:15 51°19.034 2°54.687 66.8 12.3 64.3 11
2002-03-12 07:39:19 51°19.04 2°54.706 67.7 12.3 63.2 10.9
2002-03-12 07:39:25 51°19.049 2°54.735 66.5 12.4 64.2 11
2002-03-12 07:39:30 51°19.056 2°54.761 67.5 12.3 64.4 11
2002-03-12 07:39:35 51°19.064 2°54.784 66.3 12.3 64.1 11
2002-03-12 07:39:40 51°19.071 2°54.809 67.5 12.3 64 11
2002-03-12 07:39:45 51°19.079 2°54.833 65.8 12.3 63.5 11
2002-03-12 07:39:50 51°19.086 2°54.858 67 12.3 63.9 11
2002-03-12 07:39:55 51°19.095 2°54.881 65.7 12.3 63.2 11
2002-03-12 07:39:59 51°19.1 2°54.902 67 12.3 64 11
2002-03-12 07:40:05 51°19.11 2°54.93 65.8 12.3 63.1 11
2002-03-12 07:40:10 51°19.116 2°54.955 67 12.3 64.2 11
2002-03-12 07:40:15 51°19.125 2°54.979 65.8 12.3 63.1 11
2002-03-12 07:40:19 51°19.13 2°54.999 67 12.3 64.1 11.1
2002-03-12 07:40:25 51°19.14 2°55.028 65.8 12.3 63 11
2002-03-12 07:40:30 51°19.146 2°55.053 68.2 12.2 65 11
2002-03-12 07:40:35 51°19.155 2°55.077 66.5 12.3 64 10.9
2002-03-12 07:40:39 51°19.16 2°55.097 67.5 12.3 64.7 10.9
2002-03-12 07:40:45 51°19.17 2°55.125 66.3 12.3 63.7 10.9
2002-03-12 07:40:50 51°19.176 2°55.15 67.8 12.2 65 11
2002-03-12 07:40:55 51°19.185 2°55.174 66.3 12.3 63.8 11
2002-03-12 07:40:59 51°19.19 2°55.194 67.5 12.3 64.9 11
2002-03-12 07:41:05 51°19.2 2°55.223 66.3 12.3 63.8 10.9
2002-03-12 07:41:10 51°19.206 2°55.248 67.7 12.3 64.8 11
2002-03-12 07:41:15 51°19.214 2°55.272 66.5 12.3 63.9 10.9
2002-03-12 07:41:19 51°19.219 2°55.292 67.7 12.3 64.9 10.9
2002-03-12 07:41:25 51°19.229 2°55.321 66.8 12.2 63.9 10.9
2002-03-12 07:41:30 51°19.236 2°55.346 67.2 12.3 64.3 11
2002-03-12 07:41:35 51°19.244 2°55.37 66.2 12.3 63 10.9
2002-03-12 07:41:40 51°19.251 2°55.395 67.5 12.2 64.4 10.9
2002-03-12 07:41:45 51°19.259 2°55.418 66.2 12.2 62.8 11
2002-03-12 07:41:50 51°19.266 2°55.443 66.8 12.3 64.2 10.9
2002-03-12 07:41:55 51°19.275 2°55.467 66.3 12.3 62.7 10.9
2002-03-12 07:42:00 51°19.281 2°55.492 67.5 12.2 64.6 10.9
2002-03-12 07:42:05 51°19.29 2°55.516 66.3 12.2 63 10.9
2002-03-12 07:42:10 51°19.296 2°55.541 67.5 12.3 64.4 10.8
2002-03-12 07:42:15 51°19.304 2°55.564 66.5 12.3 62.9 10.9
2002-03-12 07:42:20 51°19.311 2°55.589 67.3 12.2 64.5 10.9
2002-03-12 07:42:25 51°19.32 2°55.613 66.3 12.2 62.7 10.8
2002-03-12 07:42:30 51°19.326 2°55.638 67.2 12.2 64.3 10.9
2002-03-12 07:42:35 51°19.335 2°55.661 66.2 12.2 62.5 10.8
2002-03-12 07:42:40 51°19.342 2°55.686 66.8 12.3 64 10.9
2002-03-12 07:42:45 51°19.35 2°55.71 66.2 12.2 62.3 10.9
2002-03-12 07:42:50 51°19.357 2°55.734 67.3 12.2 64.2 10.9
2002-03-12 07:42:55 51°19.365 2°55.758 66.7 12.2 63.1 10.9
2002-03-12 07:43:00 51°19.372 2°55.783 67.2 12.3 64.3 10.9
2002-03-12 07:43:05 51°19.38 2°55.807 66.7 12.3 62.8 10.9
2002-03-12 07:43:10 51°19.387 2°55.831 67 12.2 63.9 10.9
2002-03-12 07:43:15 51°19.395 2°55.856 67.3 12.3 63.1 10.9
2002-03-12 07:43:20 51°19.402 2°55.88 67 12.3 64.8 10.9
2002-03-12 07:43:25 51°19.409 2°55.904 67.7 12.2 63.6 10.9
2002-03-12 07:43:30 51°19.417 2°55.928 66.7 12.2 64.8 10.8
2002-03-12 07:43:35 51°19.425 2°55.953 67 12.3 62.8 10.8
2002-03-12 07:43:40 51°19.433 2°55.977 66.5 12.2 63.2 10.8
2002-03-12 07:43:45 51°19.44 2°56.001 67.2 12.2 63.2 10.8
2002-03-12 07:43:50 51°19.448 2°56.025 66.8 12.2 63.3 10.8
2002-03-12 07:43:55 51°19.455 2°56.05 67.3 12.3 63.6 10.8
2002-03-12 07:43:59 51°19.461 2°56.069 66 12.3 62.9 10.8
2002-03-12 07:44:05 51°19.47 2°56.099 67.5 12.2 63.8 10.8
2002-03-12 07:44:10 51°19.478 2°56.122 66.8 12.2 63.1 10.8
2002-03-12 07:44:15 51°19.485 2°56.148 67.8 12.3 64 10.7
2002-03-12 07:44:20 51°19.493 2°56.171 66.3 12.3 62.7 10.7
2002-03-12 07:44:25 51°19.5 2°56.196 67.5 12.3 64.3 10.7
2002-03-12 07:44:30 51°19.508 2°56.22 66.7 12.2 63.1 10.8
2002-03-12 07:44:35 51°19.515 2°56.245 68 12.3 64.6 10.7
2002-03-12 07:44:40 51°19.524 2°56.268 66.3 12.3 62.8 10.7
2002-03-12 07:44:45 51°19.53 2°56.294 68 12.3 64.7 10.7
2002-03-12 07:44:50 51°19.539 2°56.317 66.2 12.3 62.4 10.8
2002-03-12 07:44:55 51°19.545 2°56.342 67.3 12.3 64 10.7
2002-03-12 07:45:00 51°19.554 2°56.365 65.7 12.2 61.9 10.8
2002-03-12 07:45:05 51°19.561 2°56.391 66.7 12.3 63.6 10.8
2002-03-12 07:45:10 51°19.57 2°56.414 65.7 12.3 62 10.7
2002-03-12 07:45:15 51°19.576 2°56.439 67.5 12.3 64.3 10.8
2002-03-12 07:45:20 51°19.584 2°56.463 67 12.2 62.9 10.8
2002-03-12 07:45:25 51°19.591 2°56.488 68.2 12.2 65.2 10.8
2002-03-12 07:45:30 51°19.599 2°56.512 67.2 12.2 63.2 10.8
2002-03-12 07:45:35 51°19.606 2°56.537 68.3 12.2 65.3 10.8
2002-03-12 07:45:40 51°19.614 2°56.561 67.8 12.2 63.9 10.4
2002-03-12 07:45:45 51°19.62 2°56.586 68.5 12.2 65.6 10.7
2002-03-12 07:45:50 51°19.628 2°56.61 68.2 12.3 64.2 10.7
2002-03-12 07:45:55 51°19.635 2°56.635 68.5 12.3 65.4 10.7
2002-03-12 07:46:00 51°19.642 2°56.659 67.8 12.3 64.3 10.7
2002-03-12 07:46:05 51°19.649 2°56.684 68.3 12.2 65.9 10.8
2002-03-12 07:46:10 51°19.657 2°56.708 68 12.2 64 10.7
2002-03-12 07:46:15 51°19.664 2°56.733 68.2 12.3 65.5 10.7
2002-03-12 07:46:20 51°19.672 2°56.757 67.8 12.3 63.9 10.7
2002-03-12 07:46:25 51°19.679 2°56.782 68 12.3 65.1 10.7
2002-03-12 07:46:30 51°19.686 2°56.806 67.7 12.3 63.8 10.7
2002-03-12 07:46:35 51°19.694 2°56.831 67.7 12.3 64.4 10.7
2002-03-12 07:46:40 51°19.701 2°56.856 68 12.3 64.1 10.6
2002-03-12 07:46:45 51°19.709 2°56.88 67.8 12.3 65.1 10.6
2002-03-12 07:46:50 51°19.716 2°56.905 68 12.3 64.1 10.6
2002-03-12 07:46:55 51°19.723 2°56.929 67.7 12.3 65.2 10.7
2002-03-12 07:47:00 51°19.73 2°56.954 68.2 12.3 64.3 10.7
2002-03-12 07:47:05 51°19.738 2°56.978 67.5 12.3 64.7 10.6
2002-03-12 07:47:10 51°19.746 2°57.003 67.5 12.3 63 10.7
2002-03-12 07:47:14 51°19.752 2°57.022 67.7 12.3 64.5 10.7
2002-03-12 07:47:20 51°19.76 2°57.052 68.2 12.3 63.4 10.7
2002-03-12 07:47:25 51°19.768 2°57.076 67.8 12.3 64.7 10.7
2002-03-12 07:47:30 51°19.775 2°57.101 69 12.3 65.1 10.6
2002-03-12 07:47:35 51°19.783 2°57.125 67.8 12.3 65.1 10.6
2002-03-12 07:47:39 51°19.788 2°57.145 68.5 12.4 64.8 10.6
2002-03-12 07:47:45 51°19.798 2°57.174 67.5 12.4 64.6 10.6
2002-03-12 07:47:50 51°19.804 2°57.2 68.7 12.3 64.2 10.6
2002-03-12 07:47:55 51°19.812 2°57.223 67.2 12.3 64.2 10.5
2002-03-12 07:48:00 51°19.819 2°57.249 68.3 12.3 63.6 10.6
2002-03-12 07:48:05 51°19.827 2°57.273 67.2 12.4 63.8 10.6
2002-03-12 07:48:10 51°19.834 2°57.298 68.5 12.3 64.4 10.6
2002-03-12 07:48:15 51°19.842 2°57.321 67.3 12.3 63.9 10.7
2002-03-12 07:48:20 51°19.849 2°57.347 68.5 12.3 64.2 10.6
2002-03-12 07:48:25 51°19.857 2°57.371 67.3 12.4 63.9 10.6
2002-03-12 07:48:30 51°19.864 2°57.396 68.3 12.4 64.1 10.6
2002-03-12 07:48:35 51°19.872 2°57.42 67.7 12.3 63.7 10.6
2002-03-12 07:48:40 51°19.879 2°57.445 68.3 12.4 64.6 10.6
2002-03-12 07:48:45 51°19.887 2°57.469 67 12.4 63.4 10.7
2002-03-12 07:48:50 51°19.894 2°57.494 68.2 12.4 64 10.7
2002-03-12 07:48:55 51°19.902 2°57.518 67.7 12.3 63.4 10.7
2002-03-12 07:49:00 51°19.909 2°57.543 68.2 12.3 64.6 10.6
2002-03-12 07:49:05 51°19.917 2°57.567 67.7 12.3 63.3 10.6
2002-03-12 07:49:10 51°19.924 2°57.592 68 12.4 64.4 10.6
2002-03-12 07:49:15 51°19.932 2°57.616 68.2 12.3 63.5 10.6
2002-03-12 07:49:20 51°19.939 2°57.641 68 12.3 64 10.6
2002-03-12 07:49:25 51°19.947 2°57.666 68.2 12.3 63.6 10.6
2002-03-12 07:49:30 51°19.954 2°57.69 67.8 12.3 64 10.6
2002-03-12 07:49:35 51°19.962 2°57.715 68.3 12.3 63.7 10.6
2002-03-12 07:49:40 51°19.97 2°57.739 67.7 12.4 63.8 10.6
2002-03-12 07:49:45 51°19.976 2°57.764 68.5 12.3 63.4 10.6
2002-03-12 07:49:50 51°19.984 2°57.788 68.2 12.2 63.8 10.6
2002-03-12 07:49:55 51°19.991 2°57.813 68.5 12.3 64 10.5
2002-03-12 07:50:00 51°20 2°57.836 67.2 12.3 63.1 10.6
2002-03-12 07:50:05 51°20.006 2°57.861 68 12.3 63.8 10.6
2002-03-12 07:50:10 51°20.015 2°57.885 67.5 12.2 63.3 10.5
2002-03-12 07:50:15 51°20.021 2°57.91 68 12.3 63.9 10.6
2002-03-12 07:50:20 51°20.029 2°57.934 68 12.3 63.6 10.6
2002-03-12 07:50:25 51°20.036 2°57.959 68.8 12.2 64.6 10.5
2002-03-12 07:50:30 51°20.044 2°57.983 68.5 12.3 63.8 10.6
2002-03-12 07:50:35 51°20.052 2°58.008 67.8 12.4 64.1 10.6
2002-03-12 07:50:40 51°20.059 2°58.032 67.5 12.3 63.3 10.5
2002-03-12 07:50:45 51°20.067 2°58.056 67.5 12.3 63.8 10.6
2002-03-12 07:50:50 51°20.074 2°58.081 67.8 12.3 63.5 10.5
2002-03-12 07:50:55 51°20.082 2°58.105 67.3 12.4 63.5 10.5
2002-03-12 07:51:00 51°20.09 2°58.13 67.3 12.4 62.9 10.6
2002-03-12 07:51:05 51°20.097 2°58.154 67.7 12.4 63.6 10.6
2002-03-12 07:51:10 51°20.105 2°58.179 68.2 12.4 63.5 10.6
2002-03-12 07:51:15 51°20.112 2°58.203 68.3 12.4 64.2 10.5
2002-03-12 07:51:20 51°20.119 2°58.228 68.7 12.3 64 10.5
2002-03-12 07:51:25 51°20.128 2°58.252 67.3 12.3 64.7 10.5
2002-03-12 07:51:30 51°20.135 2°58.278 68 12.4 63.5 10.5
2002-03-12 07:51:35 51°20.143 2°58.302 67.5 12.4 63.6 10.5
2002-03-12 07:51:40 51°20.15 2°58.327 68.7 12.4 63.8 10.5
2002-03-12 07:51:45 51°20.158 2°58.35 67.3 12.3 63.6 10.5
2002-03-12 07:51:50 51°20.165 2°58.376 68.2 12.3 64.6 10.5
2002-03-12 07:51:55 51°20.173 2°58.4 67 12.4 63.1 10.6
2002-03-12 07:52:00 51°20.18 2°58.425 68.3 12.4 64.6 10.5
2002-03-12 07:52:05 51°20.189 2°58.448 66.8 12.3 62.8 10.5
2002-03-12 07:52:10 51°20.195 2°58.473 68.2 12.3 64.4 10.5
2002-03-12 07:52:15 51°20.204 2°58.497 67 12.4 62.8 10.5
2002-03-12 07:52:20 51°20.21 2°58.522 68.3 12.3 64.5 10.5
2002-03-12 07:52:25 51°20.219 2°58.546 66.8 12.4 62.7 10.5
2002-03-12 07:52:30 51°20.226 2°58.571 68.2 12.4 64.6 10.5
2002-03-12 07:52:35 51°20.234 2°58.595 67.3 12.3 62.6 10.5
2002-03-12 07:52:40 51°20.241 2°58.62 68.3 12.3 64.6 10.5
2002-03-12 07:52:45 51°20.249 2°58.644 67.7 12.3 62.6 10.5
2002-03-12 07:52:50 51°20.256 2°58.669 68.2 12.3 64.4 10.5
2002-03-12 07:52:55 51°20.264 2°58.692 67.5 12.3 62.5 10.5
2002-03-12 07:52:59 51°20.269 2°58.713 67.8 12.3 64 10.5
2002-03-12 07:53:05 51°20.279 2°58.741 67.3 12.2 62.3 10.5
2002-03-12 07:53:10 51°20.286 2°58.766 67.8 12.3 64.1 10.5
2002-03-12 07:53:15 51°20.294 2°58.79 67.5 12.3 62.5 10.4
2002-03-12 07:53:20 51°20.301 2°58.815 68 12.3 64.3 10.5
2002-03-12 07:53:25 51°20.309 2°58.839 68 12.3 62.6 10.5
2002-03-12 07:53:30 51°20.316 2°58.863 68.7 12.3 64.8 10.5
2002-03-12 07:53:35 51°20.324 2°58.888 68.2 12.4 63.2 10.5
2002-03-12 07:53:40 51°20.331 2°58.913 68.3 12.4 64.7 10.5
2002-03-12 07:53:45 51°20.338 2°58.937 68 12.3 63.3 10.5
2002-03-12 07:53:50 51°20.346 2°58.961 68.2 12.3 64.1 10.5
2002-03-12 07:53:55 51°20.353 2°58.986 68.3 12.3 63.5 10.5
2002-03-12 07:54:00 51°20.361 2°59.01 68 12.4 63.8 10.5
2002-03-12 07:54:05 51°20.368 2°59.035 68.3 12.4 63.7 10.5
2002-03-12 07:54:10 51°20.376 2°59.059 67.7 12.3 63.6 10.5
2002-03-12 07:54:15 51°20.384 2°59.085 68 12.4 63.4 10.5
2002-03-12 07:54:20 51°20.392 2°59.109 67.5 12.4 63.5 10.6
2002-03-12 07:54:25 51°20.399 2°59.134 68.2 12.4 63 10.5
2002-03-12 07:54:30 51°20.407 2°59.158 67.5 12.4 63.4 10.5
2002-03-12 07:54:35 51°20.414 2°59.183 68.3 12.4 63.6 10.5
2002-03-12 07:54:40 51°20.422 2°59.207 67.7 12.3 63.2 10.5
2002-03-12 07:54:45 51°20.429 2°59.232 68.2 12.4 63.8 10.5
2002-03-12 07:54:50 51°20.438 2°59.256 66.8 12.5 62.7 10.5
2002-03-12 07:54:55 51°20.444 2°59.282 67.8 12.4 63.5 10.5
2002-03-12 07:55:00 51°20.453 2°59.305 67.2 12.4 62.9 10.5
2002-03-12 07:55:05 51°20.459 2°59.331 69.2 12.3 64.5 10.5
2002-03-12 07:55:10 51°20.467 2°59.355 68.2 12.4 64.6 10.5
2002-03-12 07:55:15 51°20.474 2°59.38 68.7 12.4 64.7 10.5
2002-03-12 07:55:20 51°20.482 2°59.404 68.7 12.4 64.2 10.5
2002-03-12 07:55:25 51°20.489 2°59.43 69.5 12.4 65.6 10.5
2002-03-12 07:55:30 51°20.496 2°59.454 68.8 12.4 64.6 10.5
2002-03-12 07:55:35 51°20.503 2°59.48 69.8 12.4 65.9 10.5
2002-03-12 07:55:40 51°20.511 2°59.504 69.2 12.4 65.1 10.5
2002-03-12 07:55:45 51°20.517 2°59.53 69.7 12.4 65.9 10.5
2002-03-12 07:55:50 51°20.525 2°59.554 69.2 12.4 65.1 10.5
2002-03-12 07:55:55 51°20.532 2°59.58 69.3 12.4 65.8 10.5
2002-03-12 07:56:00 51°20.539 2°59.605 69.2 12.4 65 10.4
2002-03-12 07:56:05 51°20.546 2°59.63 69.5 12.4 66 10.5
2002-03-12 07:56:10 51°20.553 2°59.654 69.3 12.3 65.4 10.5
2002-03-12 07:56:15 51°20.56 2°59.679 69.5 12.3 66 10.5
2002-03-12 07:56:20 51°20.568 2°59.704 68.8 12.4 64.7 10.5
2002-03-12 07:56:25 51°20.575 2°59.729 68.7 12.4 65 10.5
2002-03-12 07:56:30 51°20.582 2°59.754 68.5 12.4 64.6 10.5
2002-03-12 07:56:35 51°20.59 2°59.778 68.5 12.4 64.8 10.5
2002-03-12 07:56:40 51°20.597 2°59.803 68.8 12.4 64.7 10.5
2002-03-12 07:56:45 51°20.604 2°59.828 68.8 12.4 64.6 10.5
2002-03-12 07:56:50 51°20.612 2°59.853 68.7 12.5 64.7 10.5
2002-03-12 07:56:55 51°20.619 2°59.878 68.7 12.4 64.4 10.5
2002-03-12 07:57:00 51°20.626 2°59.903 69.3 12.4 65.2 10.5
2002-03-12 07:57:05 51°20.633 2°59.928 69.3 12.4 65.1 10.5
2002-03-12 07:57:10 51°20.641 2°59.953 69.2 12.5 65.3 10.5
2002-03-12 07:57:15 51°20.648 2°59.979 69.7 12.6 65.4 10.5
2002-03-12 07:57:20 51°20.655 3°0.004 70 12.5 65.9 10.5
2002-03-12 07:57:25 51°20.661 3°0.03 71 12.5 66.8 10.5
2002-03-12 07:57:30 51°20.669 3°0.055 70.3 12.5 66.5 10.5
2002-03-12 07:57:35 51°20.675 3°0.081 70.3 12.5 66.7 10.5
2002-03-12 07:57:40 51°20.682 3°0.106 69.8 12.5 66 10.5
2002-03-12 07:57:45 51°20.689 3°0.131 69.8 12.5 66.2 10.5
2002-03-12 07:57:50 51°20.697 3°0.156 69.5 12.5 65.5 10.5
2002-03-12 07:57:55 51°20.704 3°0.182 69.5 12.6 65.8 10.5
2002-03-12 07:58:00 51°20.711 3°0.207 69.8 12.5 65.9 10.5
2002-03-12 07:58:05 51°20.718 3°0.232 69.7 12.5 65.9 10.5
2002-03-12 07:58:10 51°20.725 3°0.257 70.2 12.5 66 10.5
2002-03-12 07:58:15 51°20.732 3°0.282 69.7 12.5 65.7 10.4
2002-03-12 07:58:20 51°20.739 3°0.308 69.5 12.5 65.9 10.5
2002-03-12 07:58:25 51°20.746 3°0.333 69.2 12.5 65.6 10.5
2002-03-12 07:58:30 51°20.753 3°0.358 69.8 12.5 65.8 10.5
2002-03-12 07:58:35 51°20.76 3°0.384 69.8 12.6 65.9 10.5
2002-03-12 07:58:40 51°20.768 3°0.41 70 12.6 66 10.5
2002-03-12 07:58:45 51°20.775 3°0.435 69.8 12.6 65.9 10.5
2002-03-12 07:58:50 51°20.781 3°0.46 70.5 12.5 66.4 10.5
2002-03-12 07:58:55 51°20.789 3°0.485 70 12.5 66.1 10.5
2002-03-12 07:59:00 51°20.795 3°0.511 70.3 12.5 66.5 10.5
2002-03-12 07:59:05 51°20.802 3°0.536 70.2 12.5 65.9 10.4
2002-03-12 07:59:10 51°20.809 3°0.561 70.2 12.5 66.5 10.4
2002-03-12 07:59:15 51°20.817 3°0.586 69.8 12.5 65.7 10.4
2002-03-12 07:59:20 51°20.823 3°0.612 70 12.5 66 10.4
2002-03-12 07:59:25 51°20.83 3°0.637 70.2 12.4 65.8 10.5
2002-03-12 07:59:30 51°20.838 3°0.662 69.8 12.4 65.9 10.4
2002-03-12 07:59:35 51°20.844 3°0.688 71 12.4 66.6 10.4
2002-03-12 07:59:40 51°20.851 3°0.713 70.8 12.5 66.7 10.4
2002-03-12 07:59:45 51°20.858 3°0.739 70.8 12.5 66.7 10.4
2002-03-12 07:59:50 51°20.865 3°0.764 70.8 12.5 66.8 10.4
2002-03-12 07:59:55 51°20.871 3°0.789 70.5 12.5 66.7 10.4
2002-03-12 08:00:00 51°20.878 3°0.815 70.8 12.5 66.7 10.4
2002-03-12 08:00:05 51°20.885 3°0.84 70.8 12.5 66.7 10.4
2002-03-12 08:00:10 51°20.892 3°0.866 71 12.5 66.9 10.4
2002-03-12 08:00:14 51°20.897 3°0.886 71.7 12.5 67.3 10.4
2002-03-12 08:00:20 51°20.905 3°0.917 71.2 12.5 67.4 10.4
2002-03-12 08:00:25 51°20.912 3°0.942 70.8 12.5 67.1 10.4
2002-03-12 08:00:30 51°20.919 3°0.968 71 12.5 66.7 10.4
2002-03-12 08:00:35 51°20.925 3°0.993 71 12.5 67.1 10.4
2002-03-12 08:00:40 51°20.932 3°1.019 70.7 12.5 66.6 10.4
2002-03-12 08:00:45 51°20.939 3°1.044 70.8 12.5 66.8 10.4
2002-03-12 08:00:50 51°20.946 3°1.069 71.2 12.4 67.1 10.4
2002-03-12 08:00:55 51°20.953 3°1.095 71 12.4 67.1 10.4
2002-03-12 08:01:00 51°20.959 3°1.12 71 12.5 67 10.4
2002-03-12 08:01:05 51°20.966 3°1.145 71.2 12.5 66.8 10.4
2002-03-12 08:01:10 51°20.973 3°1.171 71.3 12.4 67.4 10.4
2002-03-12 08:01:15 51°20.979 3°1.196 70.8 12.5 66.7 10.4
2002-03-12 08:01:20 51°20.986 3°1.222 71 12.5 67.2 10.4
2002-03-12 08:01:25 51°20.993 3°1.247 70.3 12.5 66.2 10.4
2002-03-12 08:01:30 51°21 3°1.273 70.5 12.5 66.9 10.4
2002-03-12 08:01:35 51°21.007 3°1.298 70 12.5 65.6 10.4
2002-03-12 08:01:39 51°21.012 3°1.319 70.8 12.5 66.9 10.4
2002-03-12 08:01:45 51°21.021 3°1.349 70.7 12.5 66.3 10.4
2002-03-12 08:01:50 51°21.028 3°1.374 70.3 12.6 66.4 10.4
2002-03-12 08:01:55 51°21.034 3°1.4 70.7 12.5 66.5 10.4
2002-03-12 08:02:00 51°21.041 3°1.425 70.5 12.5 66.5 10.5
2002-03-12 08:02:05 51°21.048 3°1.451 71 12.5 66.4 10.5
2002-03-12 08:02:10 51°21.055 3°1.476 70.3 12.6 66.5 10.4
2002-03-12 08:02:15 51°21.062 3°1.502 70.5 12.6 66.1 10.5
2002-03-12 08:02:20 51°21.069 3°1.527 71 12.5 66.7 10.5
2002-03-12 08:02:25 51°21.075 3°1.553 71.5 12.5 66.8 10.5
2002-03-12 08:02:30 51°21.082 3°1.579 71 12.6 66.8 10.5
2002-03-12 08:02:35 51°21.089 3°1.605 71.3 12.6 67.1 10.5
2002-03-12 08:02:40 51°21.096 3°1.63 70.7 12.6 66.4 10.5
2002-03-12 08:02:45 51°21.102 3°1.656 71.3 12.5 67.1 10.5
2002-03-12 08:02:50 51°21.11 3°1.681 70.3 12.5 66.1 10.5
2002-03-12 08:02:55 51°21.116 3°1.707 71 12.5 66.9 10.5
2002-03-12 08:03:00 51°21.124 3°1.732 70.7 12.5 66.2 10.5
2002-03-12 08:03:05 51°21.13 3°1.758 71.5 12.5 67.5 10.5
2002-03-12 08:03:10 51°21.137 3°1.783 70.5 12.5 66.4 10.6
2002-03-12 08:03:15 51°21.144 3°1.808 70.8 12.5 67.1 10.6
2002-03-12 08:03:20 51°21.151 3°1.833 70.5 12.5 65.9 10.6
2002-03-12 08:03:25 51°21.158 3°1.859 70.5 12.5 66.8 10.6
2002-03-12 08:03:30 51°21.165 3°1.884 70.5 12.5 66 10.6
2002-03-12 08:03:35 51°21.171 3°1.91 70.7 12.5 67.1 10.6
2002-03-12 08:03:39 51°21.177 3°1.93 70.8 12.5 66.3 10.6
2002-03-12 08:03:45 51°21.185 3°1.96 70.8 12.5 67.1 10.6
2002-03-12 08:03:50 51°21.192 3°1.986 71 12.5 65.9 10.7
2002-03-12 08:03:55 51°21.199 3°2.011 70.8 12.5 67 10.7
2002-03-12 08:04:00 51°21.205 3°2.037 71.5 12.5 66.9 10.6
2002-03-12 08:04:05 51°21.213 3°2.062 70.5 12.5 67 10.6
2002-03-12 08:04:10 51°21.219 3°2.088 71.3 12.5 66.9 10.6
2002-03-12 08:04:15 51°21.226 3°2.113 71 12.5 67.1 10.6
2002-03-12 08:04:20 51°21.233 3°2.139 71 12.5 66.9 10.6
2002-03-12 08:04:25 51°21.24 3°2.164 71.2 12.5 67.1 10.6
2002-03-12 08:04:30 51°21.246 3°2.19 71.7 12.5 67.4 10.6
2002-03-12 08:04:35 51°21.253 3°2.215 71.2 12.5 67.1 10.7
2002-03-12 08:04:40 51°21.26 3°2.241 71.5 12.5 67.3 10.7
2002-03-12 08:04:45 51°21.266 3°2.266 71.3 12.5 67.4 10.7
2002-03-12 08:04:50 51°21.273 3°2.292 71.5 12.5 67.3 10.7
2002-03-12 08:04:55 51°21.28 3°2.318 70.7 12.6 66.8 10.7
2002-03-12 08:05:00 51°21.287 3°2.343 70.5 12.6 66.6 10.7
2002-03-12 08:05:05 51°21.294 3°2.368 70.8 12.5 66.4 10.7
2002-03-12 08:05:10 51°21.301 3°2.394 71 12.5 66.9 10.6
2002-03-12 08:05:15 51°21.308 3°2.419 70.7 12.5 66.5 10.7
2002-03-12 08:05:20 51°21.314 3°2.445 71.3 12.5 66.8 10.7
2002-03-12 08:05:25 51°21.321 3°2.47 71.2 12.4 66.9 10.7
2002-03-12 08:05:30 51°21.328 3°2.496 71 12.5 66.9 10.7
2002-03-12 08:05:35 51°21.335 3°2.521 70.8 12.4 66.5 10.7
2002-03-12 08:05:40 51°21.341 3°2.546 71 12.5 66.7 10.7
2002-03-12 08:05:45 51°21.348 3°2.572 71.2 12.5 66.7 10.7
2002-03-12 08:05:50 51°21.355 3°2.597 70.8 12.5 66.6 10.7
2002-03-12 08:05:55 51°21.362 3°2.622 71 12.5 66.7 10.7
2002-03-12 08:06:00 51°21.369 3°2.648 70.8 12.5 66.6 10.7
2002-03-12 08:06:05 51°21.375 3°2.673 71.2 12.5 67.1 10.7
2002-03-12 08:06:10 51°21.383 3°2.698 70.2 12.5 66.1 10.7
2002-03-12 08:06:15 51°21.389 3°2.724 70.5 12.5 66.8 10.7
2002-03-12 08:06:20 51°21.396 3°2.749 70.2 12.4 65.8 10.8
2002-03-12 08:06:25 51°21.403 3°2.774 70.8 12.4 66.6 10.8
2002-03-12 08:06:30 51°21.41 3°2.799 70.5 12.4 66.3 10.7
2002-03-12 08:06:35 51°21.416 3°2.825 71 12.4 66.6 10.8
2002-03-12 08:06:40 51°21.423 3°2.85 70.7 12.4 66.6 10.8
2002-03-12 08:06:45 51°21.43 3°2.876 71.2 12.4 67.6 10.8
2002-03-12 08:06:50 51°21.437 3°2.901 70.5 12.5 66.6 10.8
2002-03-12 08:06:55 51°21.443 3°2.927 71.5 12.5 68 10.8
2002-03-12 08:06:59 51°21.449 3°2.946 70.8 12.4 66.6 10.8
2002-03-12 08:07:05 51°21.456 3°2.977 71.5 12.4 68 10.8
2002-03-12 08:07:10 51°21.464 3°3.002 70.5 12.4 66.1 10.8
2002-03-12 08:07:15 51°21.47 3°3.028 70.7 12.5 67 10.8
2002-03-12 08:07:19 51°21.476 3°3.047 70.7 12.3 66 10.8
2002-03-12 08:07:25 51°21.484 3°3.077 70.3 12.3 66.3 10.8
2002-03-12 08:07:30 51°21.491 3°3.103 70.7 12.4 66 10.8
2002-03-12 08:07:35 51°21.499 3°3.127 70 12.4 65.7 10.8
2002-03-12 08:07:40 51°21.505 3°3.152 70.7 12.4 65.8 10.8
2002-03-12 08:07:45 51°21.513 3°3.177 69.8 12.4 65.4 10.8
2002-03-12 08:07:50 51°21.519 3°3.202 70.8 12.3 66 10.8
2002-03-12 08:07:55 51°21.527 3°3.227 70.3 12.3 65.7 10.8
2002-03-12 08:08:01 51°21.534 3°3.257 71.3 12.3 66.7 10.8
2002-03-12 08:08:05 51°21.54 3°3.276 71 12.2 66.3 10.8
2002-03-12 08:08:10 51°21.546 3°3.302 71.7 12.3 66.4 10.8
2002-03-12 08:08:15 51°21.554 3°3.327 70.7 12.3 66 10.9
2002-03-12 08:08:20 51°21.56 3°3.352 71.7 12.3 67.2 10.9
2002-03-12 08:08:25 51°21.567 3°3.376 70.8 12.3 66.2 10.9
2002-03-12 08:08:30 51°21.574 3°3.402 71.3 12.3 66.5 10.9
2002-03-12 08:08:35 51°21.581 3°3.426 70.5 12.3 65.7 10.9
2002-03-12 08:08:40 51°21.588 3°3.452 71.2 12.3 66.8 10.9
2002-03-12 08:08:45 51°21.595 3°3.476 70.8 12.3 65.7 10.9
2002-03-12 08:08:50 51°21.602 3°3.501 71.2 12.3 66.6 10.9
2002-03-12 08:08:55 51°21.609 3°3.526 70.7 12.3 66 10.9
2002-03-12 08:09:00 51°21.615 3°3.551 71.5 12.3 66.4 10.9
2002-03-12 08:09:05 51°21.622 3°3.576 70.8 12.4 66.2 10.9
2002-03-12 08:09:10 51°21.629 3°3.601 71.3 12.3 66.3 10.9
2002-03-12 08:09:15 51°21.636 3°3.626 70.5 12.3 66.3 10.9
2002-03-12 08:09:21 51°21.644 3°3.656 70.8 12.3 65.9 10.9
2002-03-12 08:09:25 51°21.65 3°3.676 70.8 12.4 66 10.9
2002-03-12 08:09:30 51°21.657 3°3.701 71.3 12.4 66.5 11
2002-03-12 08:09:35 51°21.664 3°3.726 71 12.3 66 11
2002-03-12 08:09:40 51°21.671 3°3.751 71.2 12.3 66.3 10.9
2002-03-12 08:09:45 51°21.678 3°3.776 71 12.3 65.9 10.9
2002-03-12 08:09:50 51°21.685 3°3.801 70.8 12.4 66 11
2002-03-12 08:09:55 51°21.692 3°3.826 71 12.4 65.9 11
2002-03-12 08:10:00 51°21.699 3°3.851 71.2 12.3 66 11
2002-03-12 08:10:05 51°21.705 3°3.876 71 12.3 66.2 11
2002-03-12 08:10:10 51°21.713 3°3.9 70.5 12.4 65.4 11
2002-03-12 08:10:15 51°21.72 3°3.926 70.7 12.3 65.9 11
2002-03-12 08:10:20 51°21.726 3°3.951 71.2 12.3 65.3 11
2002-03-12 08:10:25 51°21.734 3°3.975 70.5 12.4 65.7 11
2002-03-12 08:10:30 51°21.741 3°4.001 71 12.4 65.7 11
2002-03-12 08:10:35 51°21.748 3°4.025 70.5 12.4 65.6 11
2002-03-12 08:10:39 51°21.753 3°4.045 71.2 12.3 65.7 11
2002-03-12 08:10:45 51°21.762 3°4.075 71.2 12.4 65.9 11
2002-03-12 08:10:50 51°21.769 3°4.1 70.7 12.4 65.5 11
2002-03-12 08:10:55 51°21.776 3°4.125 71 12.3 65.5 11
2002-03-12 08:11:00 51°21.783 3°4.15 71.2 12.3 65.5 11
2002-03-12 08:11:05 51°21.79 3°4.175 70.5 12.3 65.5 11.1
2002-03-12 08:11:10 51°21.797 3°4.2 71 12.3 65.7 11.1
2002-03-12 08:11:15 51°21.804 3°4.224 70.7 12.3 65.4 11.1
2002-03-12 08:11:20 51°21.811 3°4.249 71.3 12.3 66 11.1
2002-03-12 08:11:25 51°21.819 3°4.273 70.5 12.3 65.4 11.1
2002-03-12 08:11:30 51°21.825 3°4.298 71 12.2 65.4 11.1
2002-03-12 08:11:35 51°21.833 3°4.323 70.5 12.2 65.4 11.1
2002-03-12 08:11:40 51°21.839 3°4.347 70.7 12.2 65.2 11.1
2002-03-12 08:11:45 51°21.847 3°4.372 71 12.2 65.4 11.1
2002-03-12 08:11:50 51°21.854 3°4.396 70.8 12.2 65.3 11.2
2002-03-12 08:11:55 51°21.861 3°4.421 71.3 12.1 65.4 11.2
2002-03-12 08:12:00 51°21.867 3°4.445 71 12.1 65.5 11.1
2002-03-12 08:12:05 51°21.875 3°4.47 70.8 12.2 65.3 11.1
2002-03-12 08:12:10 51°21.882 3°4.495 71.2 12.2 65.5 11.2
2002-03-12 08:12:15 51°21.887 3°4.52 73.5 12.1 67.1 11.2
2002-03-12 08:12:20 51°21.894 3°4.545 73.8 12.1 68.3 11.2
2002-03-12 08:12:25 51°21.899 3°4.571 75.3 12.2 69.9 11.2
2002-03-12 08:12:30 51°21.905 3°4.596 75.7 12.3 70.6 11.2
2002-03-12 08:12:35 51°21.909 3°4.622 77.5 12.3 71.7 11.2
2002-03-12 08:12:40 51°21.914 3°4.648 78.3 12.2 73.4 11.2
2002-03-12 08:12:45 51°21.918 3°4.674 79.5 12.2 74.1 11.3
2002-03-12 08:12:50 51°21.922 3°4.7 80.3 12.2 75.8 11.3
2002-03-12 08:12:55 51°21.926 3°4.727 80.7 12.2 76 11.3
2002-03-12 08:13:00 51°21.93 3°4.754 80.8 12.3 76.7 11.3
2002-03-12 08:13:05 51°21.934 3°4.78 81.2 12.3 76.7 11.3
2002-03-12 08:13:10 51°21.938 3°4.806 80.3 12.2 76.1 11.3
2002-03-12 08:13:15 51°21.942 3°4.833 80.2 12.1 76.2 11.3
2002-03-12 08:13:20 51°21.947 3°4.859 79.5 12.2 75.7 11.3
2002-03-12 08:13:25 51°21.951 3°4.885 79.5 12.2 75.3 11.3
2002-03-12 08:13:30 51°21.955 3°4.912 79.3 12.3 74.7 11.4
2002-03-12 08:13:35 51°21.96 3°4.938 78.7 12.4 74.6 11.4
2002-03-12 08:13:40 51°21.965 3°4.964 78.8 12.2 74.4 11.4
2002-03-12 08:13:45 51°21.969 3°4.99 79.2 12.2 74.7 11.4
2002-03-12 08:13:50 51°21.973 3°5.016 79.8 12.3 75.1 11.4
2002-03-12 08:13:55 51°21.978 3°5.043 79.5 12.4 75.1 11.3
2002-03-12 08:14:00 51°21.982 3°5.069 78.8 12.5 75.1 11.4
2002-03-12 08:14:05 51°21.987 3°5.096 78.7 12.4 74.5 11.4
2002-03-12 08:14:10 51°21.991 3°5.121 79.3 12.2 74.7 11.4
2002-03-12 08:14:15 51°21.995 3°5.148 79.2 12.2 74.7 11.3
2002-03-12 08:14:19 51°21.999 3°5.169 78.5 12.4 74.4 11.4
2002-03-12 08:14:25 51°22.004 3°5.201 78.5 12.5 74.1 11.4
2002-03-12 08:14:30 51°22.009 3°5.226 78.8 12.3 74.3 11.4
2002-03-12 08:14:35 51°22.013 3°5.253 79.3 12.2 74.2 11.5
2002-03-12 08:14:40 51°22.018 3°5.279 78.7 12.2 74.3 11.5
2002-03-12 08:14:45 51°22.022 3°5.306 79.2 12.3 74.7 11.5
2002-03-12 08:14:50 51°22.028 3°5.332 78.2 12.4 73.9 11.4
2002-03-12 08:14:55 51°22.031 3°5.359 79.2 12.4 74.7 11.4
2002-03-12 08:15:00 51°22.037 3°5.385 78.5 12.4 74.2 11.5
2002-03-12 08:15:05 51°22.04 3°5.412 79.3 12.4 75 11.5
2002-03-12 08:15:10 51°22.045 3°5.438 79 12.4 74.7 11.5
2002-03-12 08:15:15 51°22.049 3°5.465 79.3 12.4 75.3 11.5
2002-03-12 08:15:20 51°22.054 3°5.492 78.8 12.5 75 11.5
2002-03-12 08:15:25 51°22.059 3°5.519 79 12.6 75 11.5
2002-03-12 08:15:30 51°22.063 3°5.545 78.5 12.6 74.4 11.6
2002-03-12 08:15:35 51°22.068 3°5.572 78.8 12.4 74.5 11.6
2002-03-12 08:15:40 51°22.072 3°5.598 79.2 12.4 75 11.6
2002-03-12 08:15:45 51°22.077 3°5.625 79.2 12.5 75.1 11.5
2002-03-12 08:15:50 51°22.081 3°5.652 79 12.6 75 11.6
2002-03-12 08:15:55 51°22.086 3°5.679 78.8 12.6 74.6 11.6
2002-03-12 08:15:59 51°22.089 3°5.701 78.7 12.6 74.7 11.6
2002-03-12 08:16:05 51°22.095 3°5.733 79 12.5 74.7 11.6
2002-03-12 08:16:10 51°22.1 3°5.759 78.7 12.5 74.4 11.6
2002-03-12 08:16:15 51°22.104 3°5.786 78.7 12.5 74.7 11.6
2002-03-12 08:16:20 51°22.109 3°5.813 78.8 12.6 74.4 11.6
2002-03-12 08:16:25 51°22.113 3°5.84 78.8 12.6 74.7 11.7
2002-03-12 08:16:30 51°22.118 3°5.866 78.8 12.5 74.6 11.7
2002-03-12 08:16:35 51°22.122 3°5.893 79.3 12.4 75 11.7
2002-03-12 08:16:40 51°22.127 3°5.92 79.3 12.5 75.1 11.6
2002-03-12 08:16:45 51°22.132 3°5.947 78.2 12.6 74.5 11.6
2002-03-12 08:16:50 51°22.136 3°5.973 78.5 12.6 74.4 11.7
2002-03-12 08:16:55 51°22.141 3°6 79.2 12.5 74.4 11.7
2002-03-12 08:17:00 51°22.146 3°6.026 79 12.4 74.8 11.7
2002-03-12 08:17:05 51°22.15 3°6.053 79.3 12.4 74.5 11.7
2002-03-12 08:17:10 51°22.155 3°6.08 79 12.4 74.6 11.7
2002-03-12 08:17:15 51°22.159 3°6.106 78.5 12.5 74.3 11.7
2002-03-12 08:17:21 51°22.165 3°6.138 78.7 12.5 74.4 11.8
2002-03-12 08:17:25 51°22.169 3°6.159 78.8 12.4 74.6 11.8
2002-03-12 08:17:30 51°22.173 3°6.186 79.8 12.4 75.2 11.8
2002-03-12 08:17:35 51°22.179 3°6.213 77.8 12.5 74.5 11.8
2002-03-12 08:17:40 51°22.182 3°6.24 79.5 12.5 75 11.8
2002-03-12 08:17:45 51°22.187 3°6.266 79.2 12.4 75.2 11.8
2002-03-12 08:17:50 51°22.191 3°6.293 79 12.5 74.8 11.8
2002-03-12 08:17:55 51°22.197 3°6.319 78.5 12.5 74.5 11.8
2002-03-12 08:18:00 51°22.201 3°6.346 78.7 12.5 74.6 11.8
2002-03-12 08:18:05 51°22.206 3°6.372 78.5 12.4 74.1 11.9
2002-03-12 08:18:10 51°22.21 3°6.399 79.3 12.4 75.1 11.8
2002-03-12 08:18:15 51°22.215 3°6.426 78.5 12.5 74.6 11.8
2002-03-12 08:18:20 51°22.22 3°6.453 78.5 12.7 74.3 11.9
2002-03-12 08:18:25 51°22.224 3°6.479 79.3 12.5 74.4 11.9
2002-03-12 08:18:30 51°22.229 3°6.506 79.3 12.4 75.1 11.9
2002-03-12 08:18:35 51°22.234 3°6.532 78.5 12.5 74.2 11.9
2002-03-12 08:18:40 51°22.238 3°6.559 79 12.6 74.7 11.9
2002-03-12 08:18:45 51°22.243 3°6.586 78.7 12.6 74.4 12
2002-03-12 08:18:50 51°22.248 3°6.613 78 12.6 73.7 12
2002-03-12 08:18:55 51°22.253 3°6.64 78.3 12.6 73.6 12
2002-03-12 08:19:00 51°22.258 3°6.666 77.8 12.6 73.4 12
2002-03-12 08:19:05 51°22.263 3°6.693 78.3 12.6 73.6 12
2002-03-12 08:19:10 51°22.268 3°6.72 78.7 12.6 73.8 12
2002-03-12 08:19:15 51°22.272 3°6.747 79.3 12.6 74.6 12
2002-03-12 08:19:20 51°22.277 3°6.774 79.2 12.6 74.7 12
2002-03-12 08:19:25 51°22.281 3°6.801 79.7 12.6 74.9 12
2002-03-12 08:19:30 51°22.286 3°6.829 79.2 12.7 75.1 12
2002-03-12 08:19:35 51°22.291 3°6.855 78.8 12.7 74.2 12.1
2002-03-12 08:19:40 51°22.295 3°6.882 79.2 12.6 75 12.1
2002-03-12 08:19:45 51°22.3 3°6.909 79.2 12.6 74.4 12.1
2002-03-12 08:19:50 51°22.305 3°6.937 78.7 12.7 74.7 12
2002-03-12 08:19:55 51°22.309 3°6.964 79.2 12.7 74.4 12.1
2002-03-12 08:20:00 51°22.314 3°6.99 79.3 12.5 74.8 12
2002-03-12 08:20:05 51°22.319 3°7.017 78.7 12.6 74.5 11.9
2002-03-12 08:20:10 51°22.323 3°7.045 78.2 12.8 74.1 11.8
2002-03-12 08:20:15 51°22.328 3°7.071 78.3 12.7 73.8 11.9
2002-03-12 08:20:20 51°22.333 3°7.098 79 12.6 74.7 12
2002-03-12 08:20:26 51°22.339 3°7.131 78.5 12.7 74.2 12
2002-03-12 08:20:30 51°22.342 3°7.153 78.7 12.8 74.5 12
2002-03-12 08:20:35 51°22.347 3°7.18 78.7 12.8 74.2 12.1
2002-03-12 08:20:40 51°22.351 3°7.207 79.7 12.5 75.4 12.1
2002-03-12 08:20:45 51°22.356 3°7.234 78.8 12.6 74.8 12
2002-03-12 08:20:50 51°22.36 3°7.262 79.3 12.8 75.5 12
2002-03-12 08:20:55 51°22.366 3°7.29 78.5 12.9 74.6 12.1
2002-03-12 08:21:00 51°22.37 3°7.317 79 12.7 75.3 12.1
2002-03-12 08:21:05 51°22.374 3°7.343 79.5 12.6 75.2 12.1
2002-03-12 08:21:10 51°22.379 3°7.371 79.3 12.7 75.5 12
2002-03-12 08:21:15 51°22.383 3°7.398 79 12.8 75.3 12
2002-03-12 08:21:20 51°22.388 3°7.426 79.3 12.8 75.5 12
2002-03-12 08:21:25 51°22.392 3°7.453 79.5 12.7 75.5 12.1
2002-03-12 08:21:30 51°22.397 3°7.481 79 12.7 75.6 12.1
2002-03-12 08:21:35 51°22.401 3°7.508 78.7 12.8 75.2 12.1
2002-03-12 08:21:40 51°22.405 3°7.535 79.2 12.7 75.4 12.1
2002-03-12 08:21:45 51°22.41 3°7.562 79 12.7 75.4 12.2
2002-03-12 08:21:50 51°22.414 3°7.59 79.2 12.8 75.4 12.1
2002-03-12 08:21:55 51°22.419 3°7.617 79 12.8 75.4 12.2
2002-03-12 08:22:00 51°22.423 3°7.645 79 12.8 75.4 12.2
2002-03-12 08:22:05 51°22.428 3°7.672 78.5 12.7 75 12.1
2002-03-12 08:22:10 51°22.432 3°7.699 78.7 12.7 75.1 12.2
2002-03-12 08:22:15 51°22.437 3°7.726 78.3 12.7 74.8 12.2
2002-03-12 08:22:20 51°22.442 3°7.753 78.8 12.7 74.9 12.3
2002-03-12 08:22:25 51°22.447 3°7.781 78.7 12.8 74.4 12.2
2002-03-12 08:22:30 51°22.451 3°7.809 78.3 12.9 74.8 12.3
2002-03-12 08:22:35 51°22.456 3°7.836 78.2 12.9 74.5 12.4
2002-03-12 08:22:40 51°22.46 3°7.863 79.2 12.7 75.4 12.4
2002-03-12 08:22:45 51°22.464 3°7.89 79.2 12.7 76 12.3
2002-03-12 08:22:50 51°22.468 3°7.918 79.5 12.9 76.2 12.2
2002-03-12 08:22:55 51°22.473 3°7.947 78.7 13.2 76.3 12.4
2002-03-12 08:22:59 51°22.476 3°7.969 79 13.1 75.5 12.4
2002-03-12 08:23:05 51°22.482 3°8.001 78.8 12.8 76.1 12.3
2002-03-12 08:23:10 51°22.486 3°8.028 79.3 12.6 75.8 12.3
2002-03-12 08:23:15 51°22.491 3°8.056 78.8 12.7 75.8 12.2
2002-03-12 08:23:20 51°22.495 3°8.085 78.3 13 75.1 12.2
2002-03-12 08:23:25 51°22.5 3°8.112 78.2 13.2 75.1 12.4
2002-03-12 08:23:30 51°22.504 3°8.14 79.2 12.8 75.6 12.5
2002-03-12 08:23:35 51°22.508 3°8.166 79.2 12.6 76.3 12.4
2002-03-12 08:23:40 51°22.513 3°8.194 78.8 12.7 75.7 12.3
2002-03-12 08:23:45 51°22.518 3°8.222 78.2 12.9 75.6 12.3
2002-03-12 08:23:50 51°22.522 3°8.25 78.5 13 75.2 12.4
2002-03-12 08:23:55 51°22.527 3°8.277 78.8 12.9 75.4 12.4
2002-03-12 08:24:00 51°22.531 3°8.305 79.2 12.8 75.5 12.5
2002-03-12 08:24:05 51°22.535 3°8.332 80 12.6 76.2 12.5
2002-03-12 08:24:10 51°22.54 3°8.359 78.8 12.7 75.8 12.4
2002-03-12 08:24:15 51°22.543 3°8.388 79.3 13 76.3 12.4